createdAt,value
2018-06-08T00:01:19.018Z,15.90
2018-06-08T00:03:47.529Z,15.47
2018-06-08T00:06:16.064Z,16.03
2018-06-08T00:08:44.610Z,16.23
2018-06-08T00:11:13.176Z,16.67
2018-06-08T00:13:42.216Z,17.27
2018-06-08T00:16:10.703Z,16.07
2018-06-08T00:18:39.255Z,17.53
2018-06-08T00:21:07.758Z,17.77
2018-06-08T00:23:36.284Z,17.03
2018-06-08T00:26:04.874Z,18.37
2018-06-08T00:28:34.110Z,18.13
2018-06-08T00:31:02.686Z,16.97
2018-06-08T00:33:32.438Z,17.57
2018-06-08T00:36:00.945Z,18.60
2018-06-08T00:38:29.436Z,18.97
2018-06-08T00:40:58.006Z,19.10
2018-06-08T00:43:26.544Z,18.53
2018-06-08T00:45:55.093Z,18.47
2018-06-08T00:48:23.680Z,17.40
2018-06-08T00:50:52.173Z,17.50
2018-06-08T00:53:21.389Z,17.47
2018-06-08T00:55:49.919Z,16.97
2018-06-08T00:58:18.983Z,17.30
2018-06-08T01:00:47.514Z,18.20
2018-06-08T01:03:16.022Z,19.70
2018-06-08T01:05:44.643Z,19.30
2018-06-08T01:08:13.176Z,20.63
2018-06-08T01:10:41.696Z,20.30
2018-06-08T01:13:12.861Z,20.73
2018-06-08T01:15:42.075Z,20.53
2018-06-08T01:18:10.726Z,21.67
2018-06-08T01:20:39.209Z,20.70
2018-06-08T01:23:08.300Z,22.63
2018-06-08T01:25:36.801Z,22.57
2018-06-08T01:28:05.367Z,22.53
2018-06-08T01:30:33.828Z,23.20
2018-06-08T01:33:02.367Z,24.13
2018-06-08T01:35:30.843Z,24.10
2018-06-08T01:37:59.355Z,24.93
2018-06-08T01:40:27.844Z,25.07
2018-06-08T01:42:57.040Z,24.63
2018-06-08T01:45:25.576Z,26.73
2018-06-08T01:47:54.194Z,27.30
2018-06-08T01:50:22.706Z,27.43
2018-06-08T01:52:51.193Z,27.13
2018-06-08T01:55:19.709Z,29.40
2018-06-08T01:57:48.244Z,28.70
2018-06-08T02:00:16.738Z,29.27
2018-06-08T02:02:45.253Z,29.00
2018-06-08T02:05:13.773Z,29.80
2018-06-08T02:07:42.256Z,31.47
2018-06-08T02:10:11.453Z,30.23
2018-06-08T02:12:39.971Z,30.77
2018-06-08T02:15:08.521Z,31.53
2018-06-08T02:17:37.049Z,31.00
2018-06-08T02:20:05.534Z,31.50
2018-06-08T02:22:34.147Z,31.37
2018-06-08T02:25:03.303Z,32.30
2018-06-08T02:27:31.779Z,32.50
2018-06-08T02:29:59.961Z,31.23
2018-06-08T02:32:28.479Z,31.90
2018-06-08T02:34:56.980Z,32.47
2018-06-08T02:37:25.553Z,33.27
2018-06-08T02:39:54.066Z,32.00
2018-06-08T02:42:22.635Z,32.90
2018-06-08T02:44:51.265Z,33.60
2018-06-08T02:47:20.515Z,34.20
2018-06-08T02:49:49.041Z,33.67
2018-06-08T02:52:17.563Z,34.57
2018-06-08T02:54:46.098Z,33.30
2018-06-08T02:57:15.955Z,33.87
2018-06-08T02:59:44.465Z,35.13
2018-06-08T03:02:12.957Z,34.53
2018-06-08T03:04:41.486Z,35.47
2018-06-08T03:07:10.006Z,35.00
2018-06-08T03:09:38.606Z,35.87
2018-06-08T03:12:07.206Z,35.40
2018-06-08T03:14:35.679Z,35.43
2018-06-08T03:17:04.180Z,35.10
2018-06-08T03:19:32.668Z,34.67
2018-06-08T03:22:01.209Z,35.60
2018-06-08T03:24:29.724Z,37.40
2018-06-08T03:26:58.214Z,35.00
2018-06-08T03:29:26.710Z,35.43
2018-06-08T03:31:55.296Z,34.90
2018-06-08T03:34:23.761Z,37.63
2018-06-08T03:36:52.342Z,37.17
2018-06-08T03:39:20.816Z,37.20
2018-06-08T03:41:49.299Z,36.67
2018-06-08T03:44:18.090Z,35.67
2018-06-08T03:46:46.642Z,36.03
2018-06-08T03:49:15.134Z,32.30
2018-06-08T03:51:43.605Z,33.07
2018-06-08T03:54:12.773Z,33.57
2018-06-08T03:56:42.045Z,34.73
2018-06-08T03:59:10.602Z,33.63
2018-06-08T04:01:39.176Z,36.97
2018-06-08T04:04:07.668Z,34.40
2018-06-08T04:06:36.164Z,33.73
2018-06-08T04:09:06.108Z,34.80
2018-06-08T04:11:35.330Z,33.03
2018-06-08T04:14:03.908Z,33.83
2018-06-08T04:16:32.419Z,34.07
2018-06-08T04:19:00.952Z,32.50
2018-06-08T04:21:29.549Z,32.43
2018-06-08T04:23:58.182Z,34.00
2018-06-08T04:26:26.667Z,34.77
2018-06-08T04:28:55.187Z,33.53
2018-06-08T04:31:23.741Z,33.77
2018-06-08T04:33:52.234Z,33.30
2018-06-08T04:36:20.736Z,35.50
2018-06-08T04:38:49.233Z,33.13
2018-06-08T04:41:17.773Z,39.33
2018-06-08T04:43:46.278Z,43.63
2018-06-08T04:46:15.392Z,44.70
2018-06-08T04:48:43.871Z,45.43
2018-06-08T04:51:12.361Z,46.97
2018-06-08T04:53:40.874Z,51.13
2018-06-08T04:56:09.405Z,50.07
2018-06-08T04:58:37.922Z,12.73
2018-06-08T05:01:06.418Z,16.70
2018-06-08T05:03:34.941Z,45.80
2018-06-08T05:06:03.516Z,60.83
2018-06-08T05:08:32.046Z,56.27
2018-06-08T05:11:00.624Z,59.97
2018-06-08T05:13:28.798Z,54.13
2018-06-08T05:15:57.277Z,54.90
2018-06-08T05:18:25.887Z,67.30
2018-06-08T05:20:54.372Z,67.03
2018-06-08T05:23:22.881Z,75.47
2018-06-08T05:25:51.373Z,69.70
2018-06-08T05:28:19.859Z,65.13
2018-06-08T05:30:48.893Z,60.73
2018-06-08T05:33:17.378Z,59.43
2018-06-08T05:35:45.883Z,64.67
2018-06-08T05:38:14.385Z,61.43
2018-06-08T05:40:42.927Z,60.53
2018-06-08T05:43:14.440Z,54.73
2018-06-08T05:45:43.009Z,54.93
2018-06-08T05:48:11.559Z,53.27
2018-06-08T05:50:39.954Z,53.73
2018-06-08T05:53:09.247Z,54.90
2018-06-08T05:55:37.717Z,59.07
2018-06-08T05:58:06.343Z,54.10
2018-06-08T06:00:35.324Z,56.87
2018-06-08T06:03:03.810Z,50.07
2018-06-08T06:05:32.986Z,48.53
2018-06-08T06:08:01.448Z,53.17
2018-06-08T06:10:29.940Z,50.47
2018-06-08T06:12:58.482Z,47.90
2018-06-08T06:15:27.054Z,50.73
2018-06-08T06:17:56.535Z,46.13
2018-06-08T06:20:25.416Z,49.40
2018-06-08T06:22:53.969Z,48.87
2018-06-08T06:25:23.749Z,48.77
2018-06-08T06:27:52.264Z,47.70
2018-06-08T06:30:20.765Z,44.00
2018-06-08T06:32:49.304Z,44.70
2018-06-08T06:35:17.820Z,42.80
2018-06-08T06:37:46.316Z,44.70
2018-06-08T06:40:14.852Z,47.37
2018-06-08T06:42:43.417Z,45.97
2018-06-08T06:45:12.581Z,46.47
2018-06-08T06:47:41.085Z,40.23
2018-06-08T06:50:10.279Z,43.87
2018-06-08T06:52:38.728Z,44.27
2018-06-08T06:55:07.300Z,46.20
2018-06-08T06:57:36.489Z,41.27
2018-06-08T07:00:05.169Z,42.10
2018-06-08T07:02:33.642Z,41.97
2018-06-08T07:05:02.233Z,42.80
2018-06-08T07:07:30.790Z,40.07
2018-06-08T07:09:59.266Z,39.67
2018-06-08T07:12:27.751Z,37.97
2018-06-08T07:14:56.303Z,39.13
2018-06-08T07:17:24.881Z,41.83
2018-06-08T07:19:53.486Z,39.97
2018-06-08T07:22:22.077Z,39.30
2018-06-08T07:24:50.640Z,41.77
2018-06-08T07:27:19.104Z,41.07
2018-06-08T07:29:47.618Z,43.93
2018-06-08T07:32:16.164Z,38.37
2018-06-08T07:34:44.678Z,39.77
2018-06-08T07:37:13.233Z,41.03
2018-06-08T07:39:41.776Z,39.20
2018-06-08T07:42:10.449Z,40.60
2018-06-08T07:44:39.014Z,40.40
2018-06-08T07:47:07.610Z,35.53
2018-06-08T07:49:36.210Z,36.13
2018-06-08T07:52:04.892Z,34.60
2018-06-08T07:54:33.513Z,33.97
2018-06-08T07:57:02.582Z,31.90
2018-06-08T07:59:31.851Z,35.57
2018-06-08T08:02:00.430Z,33.20
2018-06-08T08:04:30.162Z,35.23
2018-06-08T08:06:58.818Z,35.33
2018-06-08T08:09:27.367Z,36.00
2018-06-08T08:11:55.860Z,35.77
2018-06-08T08:14:24.409Z,37.33
2018-06-08T08:16:52.958Z,38.67
2018-06-08T08:19:21.493Z,38.33
2018-06-08T08:21:50.004Z,35.90
2018-06-08T08:24:18.560Z,39.17
2018-06-08T08:26:47.073Z,39.23
2018-06-08T08:29:15.674Z,39.73
2018-06-08T08:31:44.910Z,38.77
2018-06-08T08:34:22.141Z,38.47
2018-06-08T08:37:00.590Z,38.77
2018-06-08T08:39:29.965Z,37.40
2018-06-08T08:41:58.483Z,33.40
2018-06-08T08:44:27.568Z,36.10
2018-06-08T08:46:56.032Z,38.10
2018-06-08T08:49:24.527Z,35.33
2018-06-08T08:51:53.065Z,38.17
2018-06-08T08:54:21.582Z,39.27
2018-06-08T08:56:50.627Z,42.10
2018-06-08T08:59:19.257Z,40.20
2018-06-08T09:01:47.846Z,38.30
2018-06-08T09:04:16.461Z,40.30
2018-06-08T09:06:45.056Z,40.87
2018-06-08T09:09:13.716Z,42.17
2018-06-08T09:11:42.838Z,40.33
2018-06-08T09:14:11.390Z,43.63
2018-06-08T09:16:39.959Z,43.40
2018-06-08T09:19:08.505Z,43.50
2018-06-08T09:21:37.203Z,42.23
2018-06-08T09:24:06.106Z,41.20
2018-06-08T09:26:34.636Z,44.23
2018-06-08T09:29:03.148Z,42.97
2018-06-08T09:31:31.656Z,41.47
2018-06-08T09:34:00.671Z,39.43
2018-06-08T09:36:29.336Z,43.50
2018-06-08T09:38:57.847Z,42.80
2018-06-08T09:41:26.541Z,44.50
2018-06-08T09:43:54.989Z,39.33
2018-06-08T09:46:23.578Z,41.53
2018-06-08T09:48:53.050Z,41.50
2018-06-08T09:51:21.584Z,41.23
2018-06-08T09:53:50.089Z,42.37
2018-06-08T09:56:18.596Z,42.07
2018-06-08T09:58:47.094Z,41.43
2018-06-08T10:01:15.539Z,42.27
2018-06-08T10:03:44.101Z,43.37
2018-06-08T10:06:12.612Z,41.33
2018-06-08T10:08:41.155Z,41.60
2018-06-08T10:11:09.811Z,42.77
2018-06-08T10:13:42.284Z,41.53
2018-06-08T10:16:10.967Z,40.07
2018-06-08T10:18:40.149Z,40.57
2018-06-08T10:21:08.703Z,41.43
2018-06-08T10:23:37.363Z,42.43
2018-06-08T10:26:06.008Z,42.03
2018-06-08T10:28:35.143Z,43.80
2018-06-08T10:31:03.695Z,44.33
2018-06-08T10:33:32.304Z,42.43
2018-06-08T10:36:00.988Z,45.03
2018-06-08T10:38:30.408Z,45.87
2018-06-08T10:41:00.208Z,48.02
2018-06-08T10:43:29.503Z,46.07
2018-06-08T10:45:57.973Z,45.40
2018-06-08T10:48:27.389Z,45.87
2018-06-08T10:50:55.895Z,43.57
2018-06-08T10:53:24.365Z,45.53
2018-06-08T10:55:53.495Z,46.93
2018-06-08T10:58:22.004Z,47.00
2018-06-08T11:00:50.475Z,47.00
2018-06-08T11:03:19.040Z,47.93
2018-06-08T11:05:47.590Z,50.40
2018-06-08T11:08:16.170Z,50.53
2018-06-08T11:10:44.738Z,53.43
2018-06-08T11:13:13.366Z,53.70
2018-06-08T11:15:41.816Z,52.10
2018-06-08T11:18:10.335Z,53.87
2018-06-08T11:20:38.896Z,54.63
2018-06-08T11:23:07.366Z,55.93
2018-06-08T11:25:35.850Z,57.13
2018-06-08T11:28:04.326Z,60.37
2018-06-08T11:30:33.306Z,63.87
2018-06-08T11:33:01.788Z,61.97
2018-06-08T11:35:30.357Z,57.80
2018-06-08T11:37:58.878Z,61.37
2018-06-08T11:40:27.338Z,62.93
2018-06-08T11:42:55.832Z,62.57
2018-06-08T11:45:24.301Z,72.63
2018-06-08T11:47:52.970Z,65.20
2018-06-08T11:50:21.345Z,67.83
2018-06-08T11:52:50.622Z,74.03
2018-06-08T11:55:19.107Z,75.33
2018-06-08T11:57:47.573Z,74.80
2018-06-08T12:00:16.098Z,83.27
2018-06-08T12:02:44.527Z,84.53
2018-06-08T12:05:12.994Z,81.30
2018-06-08T12:07:41.532Z,80.70
2018-06-08T12:10:10.099Z,78.77
2018-06-08T12:12:38.718Z,88.03
2018-06-08T12:15:07.265Z,84.73
2018-06-08T12:17:35.761Z,80.03
2018-06-08T12:20:04.254Z,80.30
2018-06-08T12:22:32.753Z,82.47
2018-06-08T12:25:01.281Z,85.13
2018-06-08T12:27:29.870Z,82.90
2018-06-08T12:29:58.370Z,78.80
2018-06-08T12:32:26.863Z,80.17
2018-06-08T12:34:55.392Z,80.37
2018-06-08T12:37:23.916Z,77.87
2018-06-08T12:39:52.414Z,80.90
2018-06-08T12:42:20.962Z,81.97
2018-06-08T12:44:49.471Z,81.47
2018-06-08T12:47:18.523Z,77.37
2018-06-08T12:49:47.273Z,80.00
2018-06-08T12:52:15.840Z,81.33
2018-06-08T12:54:44.428Z,79.80
2018-06-08T12:57:13.021Z,75.30
2018-06-08T12:59:41.543Z,70.83
2018-06-08T13:02:10.758Z,69.50
2018-06-08T13:04:40.034Z,68.13
2018-06-08T13:07:08.596Z,71.83
2018-06-08T13:09:37.789Z,67.23
2018-06-08T13:12:07.201Z,69.40
2018-06-08T13:14:35.716Z,68.00
2018-06-08T13:17:04.902Z,68.67
2018-06-08T13:19:33.436Z,71.00
2018-06-08T13:22:01.910Z,68.80
2018-06-08T13:24:30.455Z,72.07
2018-06-08T13:26:59.721Z,65.00
2018-06-08T13:29:28.289Z,65.00
2018-06-08T13:31:56.810Z,59.87
2018-06-08T13:34:25.348Z,60.27
2018-06-08T13:36:53.901Z,53.27
2018-06-08T13:39:22.687Z,51.73
2018-06-08T13:41:51.342Z,54.20
2018-06-08T13:44:19.865Z,49.90
2018-06-08T13:46:48.974Z,50.70
2018-06-08T13:49:17.481Z,49.23
2018-06-08T13:51:46.047Z,49.10
2018-06-08T13:54:14.532Z,49.30
2018-06-08T13:56:43.116Z,46.13
2018-06-08T13:59:11.633Z,47.77
2018-06-08T14:01:40.170Z,46.20
2018-06-08T14:04:08.771Z,45.20
2018-06-08T14:06:37.257Z,45.17
2018-06-08T14:09:06.625Z,45.30
2018-06-08T14:11:35.144Z,46.07
2018-06-08T14:14:03.654Z,44.13
2018-06-08T14:16:32.194Z,44.13
2018-06-08T14:19:00.707Z,42.23
2018-06-08T14:21:29.221Z,39.67
2018-06-08T14:23:57.804Z,38.80
2018-06-08T14:26:27.034Z,39.90
2018-06-08T14:28:56.267Z,40.03
2018-06-08T14:31:24.744Z,36.43
2018-06-08T14:33:53.287Z,35.30
2018-06-08T14:36:21.799Z,35.80
2018-06-08T14:38:51.108Z,36.53
2018-06-08T14:41:19.614Z,35.87
2018-06-08T14:43:48.250Z,37.00
2018-06-08T14:46:16.797Z,37.00
2018-06-08T14:48:45.360Z,35.93
2018-06-08T14:51:13.873Z,34.97
2018-06-08T14:53:42.445Z,34.37
2018-06-08T14:56:10.964Z,32.93
2018-06-08T14:58:39.558Z,33.10
2018-06-08T15:01:08.043Z,33.93
2018-06-08T15:03:36.588Z,33.83
2018-06-08T15:06:05.126Z,33.00
2018-06-08T15:08:34.391Z,32.43
2018-06-08T15:11:03.700Z,33.00
2018-06-08T15:13:32.221Z,33.57
2018-06-08T15:16:00.708Z,34.07
2018-06-08T15:18:29.285Z,33.17
2018-06-08T15:20:58.567Z,33.53
2018-06-08T15:23:27.144Z,34.23
2018-06-08T15:25:55.669Z,32.57
2018-06-08T15:28:24.168Z,34.33
2018-06-08T15:30:52.834Z,31.87
2018-06-08T15:33:21.383Z,31.90
2018-06-08T15:35:49.884Z,30.93
2018-06-08T15:38:19.070Z,31.30
2018-06-08T15:40:47.616Z,32.00
2018-06-08T15:43:16.138Z,29.80
2018-06-08T15:45:44.629Z,31.97
2018-06-08T15:48:13.117Z,32.43
2018-06-08T15:50:41.642Z,30.43
2018-06-08T15:53:10.238Z,31.57
2018-06-08T15:55:38.877Z,30.30
2018-06-08T15:58:07.346Z,31.00
2018-06-08T16:00:35.851Z,29.30
2018-06-08T16:03:04.031Z,28.93
2018-06-08T16:05:32.563Z,28.23
2018-06-08T16:08:01.085Z,29.13
2018-06-08T16:10:29.608Z,29.00
2018-06-08T16:12:58.138Z,29.17
2018-06-08T16:15:26.693Z,27.20
2018-06-08T16:17:55.184Z,27.17
2018-06-08T16:20:23.714Z,27.30
2018-06-08T16:22:52.189Z,25.63
2018-06-08T16:25:20.755Z,25.47
2018-06-08T16:27:49.263Z,24.97
2018-06-08T16:30:18.969Z,26.00
2018-06-08T16:32:47.458Z,26.37
2018-06-08T16:35:16.019Z,26.20
2018-06-08T16:37:44.626Z,26.37
2018-06-08T16:40:13.165Z,26.23
2018-06-08T16:42:42.339Z,25.60
2018-06-08T16:45:11.888Z,24.17
2018-06-08T16:47:40.510Z,25.30
2018-06-08T16:50:09.021Z,25.07
2018-06-08T16:52:37.501Z,25.23
2018-06-08T16:55:06.372Z,24.90
2018-06-08T16:57:35.487Z,24.77
2018-06-08T17:00:04.473Z,24.83
2018-06-08T17:02:33.075Z,24.30
2018-06-08T17:05:01.599Z,24.30
2018-06-08T17:07:30.230Z,26.67
2018-06-08T17:09:58.731Z,25.33
2018-06-08T17:12:27.326Z,26.23
2018-06-08T17:14:56.539Z,25.43
2018-06-08T17:17:25.119Z,26.07
2018-06-08T17:19:53.679Z,25.17
2018-06-08T17:22:22.170Z,26.57
2018-06-08T17:24:50.702Z,25.70
2018-06-08T17:27:19.261Z,26.00
2018-06-08T17:29:47.788Z,26.50
2018-06-08T17:32:17.567Z,25.63
2018-06-08T17:34:46.083Z,24.80
2018-06-08T17:37:14.566Z,24.33
2018-06-08T17:39:43.191Z,24.57
2018-06-08T17:42:11.703Z,23.40
2018-06-08T17:44:40.271Z,24.03
2018-06-08T17:47:08.799Z,24.77
2018-06-08T17:49:37.281Z,23.03
2018-06-08T17:52:06.006Z,22.90
2018-06-08T17:54:35.135Z,23.53
2018-06-08T17:57:03.664Z,23.03
2018-06-08T17:59:32.199Z,23.63
2018-06-08T18:02:01.341Z,26.17
2018-06-08T18:04:29.852Z,25.60
2018-06-08T18:06:58.402Z,25.30
2018-06-08T18:09:26.970Z,26.43
2018-06-08T18:11:55.535Z,27.73
2018-06-08T18:14:24.015Z,27.30
2018-06-08T18:16:52.569Z,29.60
2018-06-08T18:19:21.047Z,29.10
2018-06-08T18:21:49.653Z,30.83
2018-06-08T18:24:18.188Z,30.37
2018-06-08T18:26:46.791Z,29.27
2018-06-08T18:29:15.281Z,30.33
2018-06-08T18:31:43.846Z,31.47
2018-06-08T18:34:12.358Z,31.23
2018-06-08T18:36:40.851Z,32.10
2018-06-08T18:39:09.394Z,30.97
2018-06-08T18:41:38.012Z,31.27
2018-06-08T18:44:06.543Z,31.07
2018-06-08T18:46:35.194Z,31.53
2018-06-08T18:49:03.703Z,32.67
2018-06-08T18:51:32.205Z,33.40
2018-06-08T18:54:00.750Z,33.43
2018-06-08T18:56:29.305Z,32.87
2018-06-08T18:58:57.827Z,33.90
2018-06-08T19:01:26.404Z,34.67
2018-06-08T19:03:55.612Z,34.17
2018-06-08T19:06:26.027Z,33.87
2018-06-08T19:08:54.554Z,32.77
2018-06-08T19:11:23.086Z,33.83
2018-06-08T19:13:51.672Z,35.43
2018-06-08T19:16:20.884Z,37.83
2018-06-08T19:18:49.450Z,36.97
2018-06-08T19:21:18.007Z,38.40
2018-06-08T19:23:46.515Z,38.10
2018-06-08T19:26:15.048Z,40.87
2018-06-08T19:28:44.162Z,41.07
2018-06-08T19:31:12.672Z,40.53
2018-06-08T19:33:41.173Z,41.47
2018-06-08T19:36:12.747Z,42.33
2018-06-08T19:38:41.291Z,43.93
2018-06-08T19:41:09.808Z,43.63
2018-06-08T19:43:38.877Z,44.50
2018-06-08T19:46:13.720Z,45.33
2018-06-08T19:48:42.220Z,46.97
2018-06-08T19:51:10.738Z,48.60
2018-06-08T19:53:39.234Z,47.23
2018-06-08T19:56:07.734Z,48.67
2018-06-08T19:58:36.228Z,51.37
2018-06-08T20:01:05.624Z,48.23
2018-06-08T20:03:34.124Z,48.80
2018-06-08T20:06:02.639Z,49.53
2018-06-08T20:08:31.205Z,54.03
2018-06-08T20:11:00.211Z,52.67
2018-06-08T20:13:28.729Z,56.23
2018-06-08T20:15:57.240Z,54.13
2018-06-08T20:18:25.759Z,53.97
2018-06-08T20:20:54.338Z,55.03
2018-06-08T20:23:22.837Z,57.63
2018-06-08T20:25:51.346Z,57.50
2018-06-08T20:28:19.907Z,57.30
2018-06-08T20:30:48.401Z,58.93
2018-06-08T20:33:16.880Z,51.33
2018-06-08T20:35:45.392Z,62.47
2018-06-08T20:38:14.707Z,60.57
2018-06-08T20:40:43.231Z,58.73
2018-06-08T20:43:12.432Z,60.10
2018-06-08T20:45:41.071Z,60.73
2018-06-08T20:48:09.596Z,56.67
2018-06-08T20:50:38.212Z,55.80
2018-06-08T20:53:06.701Z,52.97
2018-06-08T20:55:35.289Z,50.67
2018-06-08T20:58:03.833Z,45.73
2018-06-08T21:00:32.366Z,45.30
2018-06-08T21:03:00.861Z,43.93
2018-06-08T21:05:29.338Z,39.13
2018-06-08T21:07:57.834Z,38.37
2018-06-08T21:10:26.462Z,38.90
2018-06-08T21:12:54.982Z,38.93
2018-06-08T21:15:23.575Z,39.87
2018-06-08T21:17:52.117Z,38.80
2018-06-08T21:20:20.670Z,39.87
2018-06-08T21:22:49.238Z,39.07
2018-06-08T21:25:17.729Z,31.03
2018-06-08T21:27:46.284Z,30.53
